Time;durP1;ratioP1;P1;durP2;ratioP2;P2;SDS_P1;SDS_P2;PMS_P1;PMS_P2;Temp;Humidity;BMP_temperature;BMP_pressure;BME280_temperature;BME280_humidity;BME280_pressure;Samples;Min_cycle;Max_cycle;Signal;HPM_P1;HPM_P2
2023/09/04 00:00:36;;;;;;;8.35;4.97;;;;;;;14.90;69.82;102435.06;15610825;28;20049;-51
2023/09/04 00:08:09;;;;;;;6.15;4.60;;;;;;;14.72;70.29;102428.28;15604997;28;20145;-52
2023/09/04 00:15:44;;;;;;;6.28;4.63;;;;;;;14.41;70.65;102442.16;15607665;28;20056;-51
2023/09/04 00:23:17;;;;;;;5.75;4.63;;;;;;;14.53;70.83;102424.41;15608267;28;20115;-51
2023/09/04 00:30:51;;;;;;;6.80;4.55;;;;;;;14.52;69.91;102438.09;15609189;28;20422;-48
2023/09/04 00:38:25;;;;;;;5.43;4.15;;;;;;;14.35;70.94;102433.97;15596848;28;20037;-49
2023/09/04 00:45:59;;;;;;;5.40;4.18;;;;;;;14.36;70.76;102436.50;15587915;28;20053;-53
2023/09/04 00:53:33;;;;;;;5.80;4.00;;;;;;;14.30;70.50;102427.28;15605831;28;20042;-53
2023/09/04 01:01:09;;;;;;;7.82;4.18;;;;;;;14.14;71.07;102427.56;15590699;28;20057;-56
2023/09/04 01:08:42;;;;;;;8.73;4.47;;;;;;;14.27;70.52;102424.97;15603008;28;20034;-50
2023/09/04 01:16:19;;;;;;;7.88;4.40;;;;;;;13.98;71.18;102425.91;15603314;28;20131;-51
2023/09/04 01:23:53;;;;;;;8.95;4.75;;;;;;;13.84;71.64;102425.97;15573331;28;20068;-52
2023/09/04 01:31:33;;;;;;;5.93;4.32;;;;;;;14.00;71.09;102434.69;15603564;28;20057;-52
2023/09/04 01:39:09;;;;;;;5.95;4.22;;;;;;;13.91;71.48;102432.28;15592496;28;20107;-52
2023/09/04 01:46:43;;;;;;;6.03;4.53;;;;;;;13.96;70.99;102419.88;15594039;28;20087;-52
2023/09/04 01:54:17;;;;;;;;;;;;;;;13.98;71.10;102422.38;15599544;28;20041;-53
2023/09/04 02:01:51;;;;;;;7.25;4.25;;;;;;;13.87;71.09;102422.91;15592505;28;20326;-54
2023/09/04 02:09:25;;;;;;;6.65;4.05;;;;;;;13.52;71.46;102398.41;15596070;28;20092;-48
2023/09/04 02:16:59;;;;;;;6.93;4.35;;;;;;;13.69;71.20;102428.69;15608781;28;20474;-50
2023/09/04 02:24:35;;;;;;;7.07;3.97;;;;;;;13.61;70.94;102428.81;15587417;28;20132;-49
2023/09/04 02:32:08;;;;;;;8.45;4.38;;;;;;;13.51;71.56;102426.41;15589468;28;20418;-50
2023/09/04 02:39:43;;;;;;;5.68;4.38;;;;;;;13.43;71.29;102429.19;15613771;28;20045;-50
2023/09/04 02:47:16;;;;;;;6.60;4.43;;;;;;;13.51;71.45;102429.09;15611439;28;20072;-54
2023/09/04 02:54:51;;;;;;;4.78;4.28;;;;;;;13.48;71.21;102434.91;15612447;28;20281;-52
2023/09/04 03:02:24;;;;;;;5.53;4.13;;;;;;;13.35;71.10;102419.38;15588203;28;20042;-53
2023/09/04 03:10:00;;;;;;;5.72;4.72;;;;;;;13.11;72.16;102412.38;15607650;28;20050;-54
2023/09/04 03:17:52;;;;;;;8.48;5.10;;;;;;;13.11;72.29;102415.06;15596038;28;20049;-49
2023/09/04 03:25:26;;;;;;;7.43;4.93;;;;;;;12.49;74.74;102424.25;15581455;28;20277;-53
2023/09/04 03:33:00;;;;;;;5.65;5.10;;;;;;;13.34;72.34;102427.66;15589516;28;20064;-51
2023/09/04 03:40:36;;;;;;;7.53;5.47;;;;;;;13.36;72.33;102436.38;15589354;28;20128;-51
2023/09/04 03:48:09;;;;;;;7.68;5.43;;;;;;;13.33;71.93;102442.97;15609720;28;20049;-52
2023/09/04 03:55:43;;;;;;;6.35;5.00;;;;;;;13.33;71.86;102453.75;15592214;28;20042;-55
2023/09/04 04:03:18;;;;;;;5.50;4.50;;;;;;;13.41;71.43;102452.84;15602388;28;20073;-52
2023/09/04 04:10:58;;;;;;;6.22;4.72;;;;;;;13.28;71.75;102453.47;15569185;28;20073;-52
2023/09/04 04:18:32;;;;;;;5.72;4.72;;;;;;;13.26;71.45;102466.34;15602187;28;20144;-52
2023/09/04 04:26:07;;;;;;;5.57;4.65;;;;;;;13.12;72.14;102476.06;15608172;28;20316;-55
2023/09/04 04:33:40;;;;;;;9.02;5.50;;;;;;;13.18;72.08;102486.09;15608237;28;20041;-54
2023/09/04 04:41:15;;;;;;;5.65;5.05;;;;;;;13.16;72.32;102490.00;15591323;28;20479;-54
2023/09/04 04:48:51;;;;;;;10.13;5.68;;;;;;;13.10;71.84;102491.56;15607541;28;20121;-51
2023/09/04 04:56:25;;;;;;;;;;;;;;;13.35;71.30;102484.09;15607677;28;20045;-52
2023/09/04 05:03:59;;;;;;;7.80;6.57;;;;;;;13.24;72.16;102489.94;15583474;28;19937;-55
2023/09/04 05:11:34;;;;;;;10.07;6.45;;;;;;;13.43;72.00;102492.09;15616325;28;20132;-50
2023/09/04 05:19:08;;;;;;;7.97;7.03;;;;;;;13.37;72.86;102492.81;15617571;28;20060;-50
2023/09/04 05:26:43;;;;;;;6.85;6.13;;;;;;;13.88;72.64;102490.19;15617177;28;20119;-49
2023/09/04 05:34:16;;;;;;;8.70;6.95;;;;;;;14.25;71.47;102494.53;15618363;28;20426;-53
2023/09/04 05:41:50;;;;;;;8.98;6.72;;;;;;;14.74;70.73;102495.69;15618275;28;20045;-54
2023/09/04 05:49:23;;;;;;;8.27;5.85;;;;;;;15.16;70.30;102502.03;15616900;28;20037;-53
2023/09/04 05:56:57;;;;;;;8.23;5.88;;;;;;;15.37;70.32;102501.13;15615578;28;20050;-51
2023/09/04 06:04:30;;;;;;;6.90;5.85;;;;;;;15.57;70.76;102507.47;15615626;28;20057;-54
2023/09/04 06:12:06;;;;;;;8.73;6.22;;;;;;;15.90;70.31;102504.13;15615419;28;20045;-55
2023/09/04 06:19:39;;;;;;;8.88;6.30;;;;;;;16.15;70.27;102499.00;15611434;28;20030;-51
2023/09/04 06:27:13;;;;;;;6.68;5.00;;;;;;;16.58;69.47;102503.03;15592969;28;20049;-53
2023/09/04 06:34:46;;;;;;;7.65;5.15;;;;;;;16.92;68.93;102511.22;15615213;28;20478;-56
2023/09/04 06:42:21;;;;;;;9.52;6.47;;;;;;;17.39;67.75;102507.38;15615353;28;20438;-55
2023/09/04 06:49:54;;;;;;;11.23;5.63;;;;;;;18.08;65.50;102497.75;15597352;28;20053;-56
2023/09/04 06:57:28;;;;;;;8.55;5.07;;;;;;;18.82;64.74;102507.97;15612312;28;20125;-55
2023/09/04 07:05:01;;;;;;;5.45;4.95;;;;;;;18.55;63.86;102507.28;15612378;28;20401;-54
2023/09/04 07:12:37;;;;;;;12.38;4.75;;;;;;;18.91;64.64;102513.13;15609556;28;20576;-50
2023/09/04 07:20:11;;;;;;;5.63;4.57;;;;;;;19.20;63.30;102508.88;15612665;28;20065;-54
2023/09/04 07:27:46;;;;;;;9.18;4.40;;;;;;;19.90;60.51;102508.53;15610617;28;20055;-57
2023/09/04 07:35:19;;;;;;;6.22;3.45;;;;;;;20.52;59.11;102499.09;15610709;28;20483;-56
2023/09/04 07:52:17;;;;;;;2.70;1.67;;;;;;;20.94;56.07;102492.69;15542705;28;20643;-53
2023/09/04 07:59:51;;;;;;;6.22;1.80;;;;;;;20.46;57.09;102488.22;15550117;28;20518;-55
2023/09/04 08:07:25;;;;;;;3.33;1.92;;;;;;;21.23;55.85;102494.50;15548716;28;20096;-56
2023/09/04 08:14:58;;;;;;;2.45;1.45;;;;;;;21.71;53.45;102501.56;15548919;28;20038;-54
2023/09/04 08:22:36;;;;;;;4.60;1.55;;;;;;;21.89;54.09;102487.72;15549959;28;20200;-52
2023/09/04 08:30:11;;;;;;;2.53;1.40;;;;;;;21.38;52.71;102483.94;15549225;28;20057;-57
2023/09/04 08:37:46;;;;;;;2.65;1.30;;;;;;;22.29;51.04;102481.38;15547962;28;20124;-52
2023/09/04 08:45:20;;;;;;;4.18;1.20;;;;;;;23.18;49.52;102472.44;15559633;28;20085;-56
2023/09/04 08:52:55;;;;;;;2.88;1.23;;;;;;;23.02;50.09;102460.41;15560849;28;20069;-52
2023/09/04 09:00:28;;;;;;;2.80;1.20;;;;;;;23.15;48.42;102471.00;15558914;28;20038;-55
2023/09/04 09:08:05;;;;;;;3.20;1.38;;;;;;;22.88;48.48;102468.13;15558750;28;20423;-51
2023/09/04 09:15:39;;;;;;;2.83;1.65;;;;;;;23.28;49.70;102469.00;15559245;28;20071;-55
2023/09/04 09:23:16;;;;;;;2.95;1.88;;;;;;;23.21;48.71;102474.63;15558572;28;20050;-53
2023/09/04 09:30:51;;;;;;;4.25;1.77;;;;;;;23.39;48.38;102470.78;15559151;28;20580;-56
2023/09/04 09:38:27;;;;;;;3.38;1.58;;;;;;;23.87;47.99;102467.25;15558510;28;20173;-52
2023/09/04 09:46:01;;;;;;;3.22;1.20;;;;;;;24.06;48.47;102461.41;15556738;28;20415;-45
2023/09/04 09:53:45;;;;;;;3.80;1.42;;;;;;;24.98;45.18;102451.22;15555301;28;20523;-49
2023/09/04 10:01:20;;;;;;;3.17;1.08;;;;;;;25.27;44.95;102457.16;15555751;28;20053;-49
2023/09/04 10:08:55;;;;;;;2.88;1.35;;;;;;;25.72;44.87;102441.94;15556127;28;20046;-49
2023/09/04 10:16:33;;;;;;;3.42;1.55;;;;;;;25.64;43.08;102440.53;15554202;28;20062;-48
2023/09/04 10:24:13;;;;;;;2.40;1.40;;;;;;;26.33;42.47;102448.41;15554359;28;20041;-52
2023/09/04 10:31:48;;;;;;;4.03;1.30;;;;;;;26.45;43.75;102448.16;15554285;28;20069;-51
2023/09/04 10:39:24;;;;;;;3.58;1.52;;;;;;;26.12;42.30;102422.81;15554185;28;20100;-48
2023/09/04 10:46:57;;;;;;;6.43;1.30;;;;;;;27.44;38.97;102420.91;15554377;28;20368;-48
2023/09/04 10:54:32;;;;;;;1.95;1.17;;;;;;;27.18;41.88;102415.50;15554196;28;20049;-47
2023/09/04 11:02:27;;;;;;;2.10;1.20;;;;;;;28.17;40.32;102400.88;15552567;28;20046;-53
2023/09/04 11:10:04;;;;;;;4.10;1.27;;;;;;;28.09;39.47;102407.03;15553142;28;20520;-47
2023/09/04 11:17:39;;;;;;;2.10;1.38;;;;;;;28.63;36.15;102397.69;15554508;28;20529;-52
2023/09/04 11:25:13;;;;;;;6.20;1.45;;;;;;;28.85;35.93;102395.25;15551234;28;20041;-47
2023/09/04 11:32:46;;;;;;;2.63;1.30;;;;;;;28.52;37.03;102412.75;15551830;28;20072;-46
2023/09/04 11:40:21;;;;;;;2.45;1.13;;;;;;;28.63;35.51;102404.06;15550005;28;20049;-48
2023/09/04 11:47:54;;;;;;;1.75;1.20;;;;;;;28.40;37.05;102394.63;15550546;28;20093;-52
2023/09/04 11:55:30;;;;;;;2.65;1.20;;;;;;;28.12;38.46;102387.94;15549483;28;20048;-45
2023/09/04 12:03:05;;;;;;;3.28;1.05;;;;;;;28.90;34.84;102380.53;15533804;28;20042;-47
2023/09/04 12:10:39;;;;;;;3.08;1.20;;;;;;;29.50;34.79;102372.59;15550507;28;20321;-46
2023/09/04 12:18:12;;;;;;;1.65;1.20;;;;;;;29.39;34.46;102369.16;15556464;28;20073;-49
2023/09/04 12:25:47;;;;;;;1.92;1.05;;;;;;;29.56;32.70;102360.34;15547990;28;20049;-48
2023/09/04 12:33:20;;;;;;;1.77;1.10;;;;;;;29.08;34.52;102351.31;15549250;28;20041;-47
2023/09/04 12:40:55;;;;;;;4.03;1.23;;;;;;;29.24;33.70;102347.25;15547680;28;20470;-45
2023/09/04 12:48:29;;;;;;;1.73;1.17;;;;;;;29.28;33.54;102345.50;15546874;28;20073;-46
2023/09/04 12:56:05;;;;;;;3.13;1.10;;;;;;;30.09;32.41;102349.00;15549552;28;20057;-52
2023/09/04 13:03:38;;;;;;;1.95;1.05;;;;;;;29.89;32.65;102347.41;15548749;28;20050;-52
2023/09/04 13:11:14;;;;;;;2.55;1.20;;;;;;;29.63;33.37;102343.38;15547055;28;20046;-55
2023/09/04 13:18:47;;;;;;;17.95;2.35;;;;;;;30.83;30.66;102339.91;15579831;28;20046;-45
2023/09/04 13:26:22;;;;;;;3.30;1.10;;;;;;;31.17;29.54;102315.28;15611530;28;20077;-54
2023/09/04 13:34:00;;;;;;;2.78;1.00;;;;;;;31.77;27.05;102319.72;15560821;28;20061;-47
2023/09/04 13:41:35;;;;;;;2.55;1.20;;;;;;;28.10;33.76;102312.84;15583658;28;20057;-51
2023/09/04 13:49:08;;;;;;;1.40;0.93;;;;;;;30.38;30.55;102290.56;15577611;28;20180;-50
2023/09/04 13:56:44;;;;;;;3.15;1.20;;;;;;;28.27;33.88;102284.81;15554943;28;20056;-48
2023/09/04 14:04:17;;;;;;;1.73;1.13;;;;;;;28.12;34.13;102277.50;15550150;28;20116;-52
2023/09/04 14:11:52;;;;;;;2.78;1.30;;;;;;;28.34;34.15;102273.41;15554506;28;20073;-50
2023/09/04 14:19:25;;;;;;;3.70;1.33;;;;;;;27.91;35.17;102270.53;15553228;28;20093;-45
2023/09/04 14:27:00;;;;;;;4.28;1.50;;;;;;;26.43;37.33;102272.19;15557264;28;20108;-54
2023/09/04 14:34:35;;;;;;;2.70;1.40;;;;;;;27.39;36.62;102261.81;15543683;28;20423;-51
2023/09/04 14:42:24;;;;;;;3.10;1.30;;;;;;;27.17;37.28;102258.66;15548775;28;20045;-52
2023/09/04 14:49:57;;;;;;;2.95;1.30;;;;;;;27.26;36.84;102247.84;15553479;28;20072;-47
2023/09/04 14:57:32;;;;;;;2.28;1.20;;;;;;;27.28;36.71;102245.63;15553304;28;20064;-45
2023/09/04 15:05:05;;;;;;;2.22;1.40;;;;;;;27.05;36.65;102242.44;15551780;28;20054;-48
2023/09/04 15:12:40;;;;;;;2.35;1.25;;;;;;;26.49;39.52;102239.97;15551336;28;20050;-49
2023/09/04 15:20:13;;;;;;;3.00;1.52;;;;;;;26.76;38.64;102239.56;15550342;28;20042;-47
2023/09/04 15:27:47;;;;;;;4.88;1.35;;;;;;;26.88;38.26;102242.81;15551343;28;20046;-47
2023/09/04 15:35:20;;;;;;;3.70;1.77;;;;;;;26.40;39.74;102225.94;15551094;28;20045;-51
2023/09/04 15:42:56;;;;;;;2.40;1.60;;;;;;;26.45;39.43;102228.69;15551357;28;20069;-48
2023/09/04 15:50:31;;;;;;;2.22;1.38;;;;;;;26.78;38.92;102226.34;15551047;28;20045;-56
2023/09/04 15:58:07;;;;;;;1.42;1.15;;;;;;;25.92;41.31;102219.16;15548987;28;20452;-57
2023/09/04 16:05:41;;;;;;;4.40;1.70;;;;;;;25.79;40.71;102226.06;15533244;28;20133;-54
2023/09/04 16:13:18;;;;;;;5.35;1.60;;;;;;;26.14;40.07;102210.59;15548724;28;20121;-55
2023/09/04 16:20:52;;;;;;;3.75;1.80;;;;;;;26.27;39.63;102210.00;15548253;28;20056;-55
2023/09/04 16:28:26;;;;;;;3.80;1.50;;;;;;;25.83;41.02;102205.13;15548559;28;20104;-55
2023/09/04 16:36:01;;;;;;;2.92;1.42;;;;;;;25.97;40.24;102210.06;15548168;28;20042;-53
2023/09/04 16:43:36;;;;;;;3.10;1.40;;;;;;;26.09;40.59;102202.34;15547802;28;20060;-57
2023/09/04 16:51:09;;;;;;;4.40;1.60;;;;;;;26.18;40.86;102200.66;15548181;28;20049;-54
2023/09/04 16:58:44;;;;;;;5.65;1.52;;;;;;;26.08;45.09;102207.03;15547377;28;20080;-56
2023/09/04 17:06:17;;;;;;;3.03;1.50;;;;;;;25.61;44.96;102199.94;15559031;28;20057;-56
2023/09/04 17:13:52;;;;;;;2.58;1.55;;;;;;;25.29;47.85;102207.63;15559564;28;20046;-56
2023/09/04 17:21:25;;;;;;;2.67;1.60;;;;;;;25.07;47.97;102194.94;15558443;28;20064;-56
2023/09/04 17:29:02;;;;;;;3.33;1.70;;;;;;;24.71;49.32;102184.94;15557004;28;20573;-54
2023/09/04 17:36:36;;;;;;;2.38;1.70;;;;;;;24.27;50.22;102190.78;15556689;28;20446;-58
2023/09/04 17:44:10;;;;;;;2.10;1.70;;;;;;;23.91;51.29;102187.84;15557629;28;20077;-55
2023/09/04 17:51:43;;;;;;;2.75;1.80;;;;;;;23.65;52.17;102192.34;15555128;28;20060;-56
2023/09/04 17:59:18;;;;;;;6.20;2.72;;;;;;;23.30;52.44;102196.38;15556459;28;20093;-54
2023/09/04 18:06:51;;;;;;;4.97;2.50;;;;;;;23.01;54.61;102195.00;15556266;28;20045;-55
2023/09/04 18:14:25;;;;;;;3.75;2.50;;;;;;;22.81;54.34;102196.41;15555663;28;20056;-55
2023/09/04 18:21:58;;;;;;;5.40;2.75;;;;;;;22.58;56.22;102189.31;15554449;28;20052;-54
2023/09/04 18:29:33;;;;;;;4.30;3.03;;;;;;;22.09;57.15;102191.09;15553907;28;20050;-51
2023/09/04 18:37:05;;;;;;;5.65;3.47;;;;;;;21.87;58.14;102194.63;15552841;28;20049;-57
2023/09/04 18:44:40;;;;;;;4.00;3.60;;;;;;;21.89;57.88;102208.84;15553971;28;20422;-55
2023/09/04 18:52:13;;;;;;;6.47;3.70;;;;;;;21.69;59.11;102211.28;15553531;28;20141;-55
2023/09/04 18:59:48;;;;;;;4.80;3.35;;;;;;;21.43;59.18;102217.38;15553465;28;20465;-53
2023/09/04 19:07:21;;;;;;;6.15;4.60;;;;;;;21.36;59.11;102212.91;15548140;28;20045;-53
2023/09/04 19:14:55;;;;;;;4.43;3.33;;;;;;;21.15;59.35;102208.13;15546679;28;20046;-54
2023/09/04 19:22:28;;;;;;;5.25;3.72;;;;;;;20.83;59.63;102210.50;15550621;28;20054;-54
2023/09/04 19:30:04;;;;;;;7.32;3.72;;;;;;;20.68;60.09;102208.31;15533517;28;20479;-54
2023/09/04 19:37:37;;;;;;;4.82;3.70;;;;;;;20.53;61.29;102210.75;15534628;28;20462;-50
2023/09/04 19:45:12;;;;;;;4.63;3.88;;;;;;;20.36;61.16;102207.88;15551153;28;20097;-52
2023/09/04 19:52:45;;;;;;;5.53;3.60;;;;;;;20.46;62.51;102197.19;15549140;28;20149;-53
2023/09/04 20:00:21;;;;;;;6.40;2.92;;;;;;;20.64;61.28;102199.78;15548609;28;20042;-57
2023/09/04 20:07:56;;;;;;;6.18;3.10;;;;;;;20.51;61.67;102201.94;15548703;28;20049;-55
2023/09/04 20:15:31;;;;;;;8.45;2.78;;;;;;;20.50;61.77;102194.84;15547597;28;20041;-57
2023/09/04 20:23:05;;;;;;;3.92;2.60;;;;;;;20.28;62.74;102198.16;15549494;28;20049;-57
2023/09/04 20:30:39;;;;;;;5.70;3.00;;;;;;;19.87;63.67;102205.44;15548040;28;20050;-56
2023/09/04 20:38:12;;;;;;;6.95;3.80;;;;;;;19.98;63.20;102206.50;15560660;28;20038;-55
2023/09/04 20:45:47;;;;;;;6.70;3.50;;;;;;;19.72;63.61;102209.69;15567521;28;20045;-56
2023/09/04 20:53:20;;;;;;;7.43;3.70;;;;;;;19.72;63.49;102210.50;15569202;28;20042;-56
2023/09/04 21:00:56;;;;;;;8.52;3.78;;;;;;;19.48;63.98;102206.88;15551544;28;20041;-50
2023/09/04 23:21:46;;;;;;;8.13;4.20;;;;;;;17.84;67.29;102181.53;15551029;28;20615;-48
2023/09/04 23:29:21;;;;;;;4.97;4.05;;;;;;;17.77;68.02;102181.59;15552797;28;20096;-49
2023/09/04 23:37:02;;;;;;;5.38;4.28;;;;;;;17.74;67.77;102179.31;15533665;28;20485;-46
2023/09/04 23:52:28;;;;;;;6.03;4.45;;;;;;;17.36;68.19;102175.88;15532868;28;20050;-45
